Time;durP1;ratioP1;P1;durP2;ratioP2;P2;SDS_P1;SDS_P2;PMS_P1;PMS_P2;Temp;Humidity;BMP_temperature;BMP_pressure;BME280_temperature;BME280_humidity;BME280_pressure;Samples;Min_cycle;Max_cycle;Signal;HPM_P1;HPM_P2
2021/08/06 00:02:08;;;;;;;3.80;2.60;;;;;;;20.17;55.27;98667.66;6071877;23;20046;-82
2021/08/06 00:04:38;;;;;;;3.70;2.47;;;;;;;20.15;55.71;98664.31;6071883;23;20457;-81
2021/08/06 00:07:05;;;;;;;2.80;2.58;;;;;;;20.16;55.26;98665.16;6072267;23;20093;-83
2021/08/06 00:09:47;;;;;;;3.05;2.55;;;;;;;20.10;55.19;98674.72;6072388;23;20058;-82
2021/08/06 00:12:14;;;;;;;2.38;2.17;;;;;;;20.13;54.85;98663.69;6097289;23;20045;-83
2021/08/06 00:14:40;;;;;;;3.67;2.40;;;;;;;20.11;54.73;98668.34;6095718;23;20105;-82
2021/08/06 00:17:45;;;;;;;4.40;2.75;;;;;;;20.04;55.04;98662.06;6072497;23;20030;-82
2021/08/06 00:20:54;;;;;;;3.08;2.25;;;;;;;20.01;55.52;98665.94;6095818;23;20019;-82
2021/08/06 00:23:22;;;;;;;3.03;2.28;;;;;;;20.04;54.78;98660.22;6096186;23;20101;-82
2021/08/06 00:26:01;;;;;;;2.72;2.53;;;;;;;19.98;55.75;98668.94;6071673;23;20094;-82
2021/08/06 00:28:28;;;;;;;4.32;2.42;;;;;;;19.99;54.97;98659.91;6097038;23;20109;-82
2021/08/06 00:31:08;;;;;;;2.97;2.47;;;;;;;19.92;56.19;98665.09;6072302;23;20416;-83
2021/08/06 00:33:35;;;;;;;2.55;2.35;;;;;;;19.96;55.14;98662.09;6072074;23;20033;-82
2021/08/06 00:36:08;;;;;;;3.42;2.40;;;;;;;19.90;55.90;98651.09;6071475;23;20018;-82
2021/08/06 00:38:35;;;;;;;3.95;2.38;;;;;;;19.90;55.40;98653.78;6071884;23;20022;-82
2021/08/06 00:41:01;;;;;;;2.80;2.58;;;;;;;19.89;55.12;98653.94;6072008;23;20796;-82
2021/08/06 00:43:50;;;;;;;2.63;2.40;;;;;;;19.82;55.37;98639.63;6072363;23;20106;-83
2021/08/06 00:46:17;;;;;;;3.58;2.53;;;;;;;19.84;55.40;98641.13;6071912;23;20036;-82
2021/08/06 00:48:53;;;;;;;3.17;2.00;;;;;;;19.79;56.01;98632.81;6071855;23;20078;-82
2021/08/06 00:51:23;;;;;;;2.63;2.38;;;;;;;19.81;56.12;98640.63;6047969;23;20026;-82
2021/08/06 00:53:50;;;;;;;2.53;2.33;;;;;;;19.81;55.90;98638.78;6071609;23;20105;-82
2021/08/06 00:56:18;;;;;;;2.70;2.10;;;;;;;19.79;55.42;98638.97;6072175;23;20090;-82
2021/08/06 00:58:54;;;;;;;2.50;2.30;;;;;;;19.74;56.25;98638.66;6096101;23;20030;-82
2021/08/06 01:01:21;;;;;;;3.00;2.45;;;;;;;19.77;56.07;98635.63;6095654;23;20105;-82
2021/08/06 01:03:57;;;;;;;2.95;2.30;;;;;;;19.74;56.74;98627.97;6072050;23;20458;-82
2021/08/06 01:07:08;;;;;;;2.63;2.42;;;;;;;19.71;56.55;98633.69;6095751;23;20061;-83
2021/08/06 01:09:38;;;;;;;2.47;2.28;;;;;;;19.74;56.77;98627.97;6096799;23;20183;-82
2021/08/06 01:12:09;;;;;;;4.03;2.45;;;;;;;19.74;56.15;98619.97;6073492;23;20040;-82
2021/08/06 01:14:42;;;;;;;3.53;2.50;;;;;;;19.72;56.70;98621.16;6073386;23;20058;-82
2021/08/06 01:17:13;;;;;;;4.10;2.53;;;;;;;19.72;56.53;98616.66;6073399;23;20101;-82
2021/08/06 01:20:05;;;;;;;3.42;2.55;;;;;;;19.70;56.44;98609.81;6073338;23;20022;-82
2021/08/06 01:22:55;;;;;;;3.05;2.50;;;;;;;19.70;57.08;98607.97;6073439;23;20514;-82
2021/08/06 01:26:01;;;;;;;2.53;2.33;;;;;;;19.73;57.31;98612.16;6073169;23;20023;-82
2021/08/06 01:28:31;;;;;;;2.45;2.25;;;;;;;19.76;56.63;98615.28;6066277;23;20026;-82
2021/08/06 01:30:58;;;;;;;2.55;2.35;;;;;;;19.77;56.34;98613.44;6073397;23;20022;-82
2021/08/06 01:33:35;;;;;;;2.60;2.40;;;;;;;19.74;57.07;98603.13;6073246;23;20089;-82
2021/08/06 01:36:02;;;;;;;3.20;2.47;;;;;;;19.78;56.58;98607.13;6073621;23;20029;-82
2021/08/06 01:38:29;;;;;;;2.42;1.95;;;;;;;19.79;56.61;98606.09;6073038;23;20018;-82
2021/08/06 01:41:34;;;;;;;2.50;2.28;;;;;;;19.74;56.79;98605.81;6073071;23;20018;-82
2021/08/06 01:44:23;;;;;;;3.15;2.13;;;;;;;19.77;57.16;98606.28;6096830;23;20025;-82
2021/08/06 01:46:52;;;;;;;2.65;2.15;;;;;;;19.78;56.64;98605.25;6073064;23;20021;-82
2021/08/06 01:49:30;;;;;;;2.63;2.28;;;;;;;19.76;57.09;98604.63;6098724;23;20029;-82
2021/08/06 01:52:19;;;;;;;2.20;2.00;;;;;;;19.75;56.88;98599.44;6073548;23;20862;-82
2021/08/06 01:54:48;;;;;;;3.35;2.30;;;;;;;19.79;56.61;98592.75;6072826;23;20023;-82
2021/08/06 01:57:15;;;;;;;2.88;2.22;;;;;;;19.77;56.42;98597.41;6098612;23;20345;-82
2021/08/06 02:03:08;;;;;;;2.72;2.33;;;;;;;19.75;56.62;98596.78;6098697;23;20030;-82
2021/08/06 02:05:36;;;;;;;2.65;2.45;;;;;;;19.72;56.59;98586.44;6072912;23;20057;-82
2021/08/06 02:08:03;;;;;;;2.63;2.15;;;;;;;19.72;56.43;98586.44;6073303;23;20378;-82
2021/08/06 02:10:47;;;;;;;2.83;2.53;;;;;;;19.66;56.87;98586.16;6098140;23;20105;-82
2021/08/06 02:13:14;;;;;;;6.05;2.50;;;;;;;19.71;56.60;98582.13;6073031;23;20082;-82
2021/08/06 02:19:06;;;;;;;2.47;2.28;;;;;;;19.72;56.89;98579.28;6098136;23;20105;-82
2021/08/06 02:21:51;;;;;;;2.72;2.50;;;;;;;19.67;57.05;98582.47;6072822;23;20093;-82
2021/08/06 02:24:21;;;;;;;2.30;2.10;;;;;;;19.72;56.82;98581.09;6072486;23;20018;-82
2021/08/06 02:26:49;;;;;;;2.78;2.58;;;;;;;19.73;56.99;98580.94;6072803;23;20104;-82
2021/08/06 02:29:18;;;;;;;3.53;2.78;;;;;;;19.74;56.94;98571.09;6072102;23;20105;-82
2021/08/06 02:31:46;;;;;;;2.85;2.40;;;;;;;19.77;57.04;98568.03;6072053;23;20019;-82
2021/08/06 02:34:14;;;;;;;3.05;2.50;;;;;;;19.79;57.20;98566.06;6073145;23;20350;-82
2021/08/06 02:36:59;;;;;;;3.22;2.70;;;;;;;19.77;57.33;98565.38;6072621;23;20079;-82
2021/08/06 02:39:29;;;;;;;2.78;2.55;;;;;;;19.84;56.99;98565.53;6073063;23;20121;-82
2021/08/06 02:41:57;;;;;;;3.80;2.78;;;;;;;19.85;56.97;98565.31;6072756;23;20109;-82
2021/08/06 02:44:42;;;;;;;2.50;2.30;;;;;;;19.83;57.28;98559.34;6072473;23;20054;-82
2021/08/06 02:47:10;;;;;;;2.67;2.15;;;;;;;19.89;56.73;98563.97;6072497;23;20027;-82
2021/08/06 02:49:37;;;;;;;3.05;2.75;;;;;;;19.90;56.94;98568.31;6073169;23;20097;-82
2021/08/06 02:52:06;;;;;;;2.97;2.42;;;;;;;19.91;57.24;98564.63;6072954;23;20101;-82
2021/08/06 02:55:09;;;;;;;6.15;2.53;;;;;;;19.89;57.51;98561.28;6097585;23;20069;-82
2021/08/06 02:57:36;;;;;;;2.92;2.35;;;;;;;19.96;56.64;98556.06;6096304;23;20025;-82
2021/08/06 03:00:04;;;;;;;3.88;2.50;;;;;;;19.98;57.18;98558.56;6072506;23;20029;-82
2021/08/06 03:06:11;;;;;;;3.17;2.47;;;;;;;19.99;56.79;98550.41;6097732;23;20073;-82
2021/08/06 03:08:47;;;;;;;6.70;2.63;;;;;;;19.96;57.13;98544.56;6072756;23;20358;-82
2021/08/06 03:11:14;;;;;;;2.80;2.53;;;;;;;19.98;56.60;98535.41;6072477;23;20022;-82
2021/08/06 03:13:41;;;;;;;3.03;2.33;;;;;;;19.97;57.02;98543.56;6072088;23;20024;-82
2021/08/06 03:16:25;;;;;;;3.22;2.75;;;;;;;19.91;57.12;98545.94;6072790;23;20018;-82
2021/08/06 03:18:52;;;;;;;3.20;2.65;;;;;;;19.94;56.61;98531.41;6097941;23;20022;-82
2021/08/06 03:21:41;;;;;;;2.63;2.42;;;;;;;19.88;56.99;98542.78;6072213;23;20019;-82
2021/08/06 03:24:17;;;;;;;3.45;2.40;;;;;;;19.89;57.43;98536.44;6072085;23;20229;-82
2021/08/06 03:26:43;;;;;;;3.42;2.50;;;;;;;19.90;56.89;98538.94;6073112;23;20438;-82
2021/08/06 03:29:10;;;;;;;4.18;2.72;;;;;;;19.89;57.07;98537.25;6072322;23;20113;-82
2021/08/06 03:32:01;;;;;;;3.80;2.42;;;;;;;19.84;57.56;98533.50;6097364;23;20019;-82
2021/08/06 03:34:28;;;;;;;2.92;2.33;;;;;;;19.87;57.08;98533.94;6072096;23;20242;-82
2021/08/06 03:36:54;;;;;;;3.13;2.33;;;;;;;19.87;57.31;98530.44;6097284;23;20079;-82
2021/08/06 03:39:44;;;;;;;6.18;2.58;;;;;;;19.82;57.56;98532.81;6096335;23;20097;-82
2021/08/06 03:42:11;;;;;;;2.45;2.22;;;;;;;19.87;57.19;98527.78;6072648;23;20323;-82
2021/08/06 03:44:37;;;;;;;3.70;2.50;;;;;;;19.87;57.25;98533.09;6071924;23;20101;-82
2021/08/06 03:47:28;;;;;;;3.10;2.80;;;;;;;19.81;57.64;98528.50;6096109;23;20110;-82
2021/08/06 03:49:55;;;;;;;3.00;2.40;;;;;;;19.86;57.48;98524.28;6072185;23;20353;-82
2021/08/06 03:52:21;;;;;;;2.60;2.40;;;;;;;19.86;57.60;98520.78;6072038;23;20054;-82
2021/08/06 03:55:12;;;;;;;3.92;2.50;;;;;;;19.82;58.02;98528.31;6096186;23;20105;-82
2021/08/06 03:57:49;;;;;;;3.38;2.53;;;;;;;19.84;58.22;98528.16;6072109;23;20097;-82
2021/08/06 04:00:17;;;;;;;4.95;3.10;;;;;;;19.86;57.66;98528.78;6095765;23;20018;-82
2021/08/06 04:02:49;;;;;;;3.35;2.80;;;;;;;19.86;58.38;98532.31;6072039;23;20101;-82
2021/08/06 04:05:16;;;;;;;3.00;2.67;;;;;;;19.88;58.19;98530.28;6072266;23;20022;-82
2021/08/06 04:07:45;;;;;;;4.20;2.72;;;;;;;19.90;58.18;98533.59;6072031;23;20065;-82
2021/08/06 04:10:19;;;;;;;2.97;2.67;;;;;;;19.89;58.64;98534.59;6072218;23;20394;-82
2021/08/06 04:12:46;;;;;;;2.60;2.40;;;;;;;19.92;57.83;98536.91;6072330;23;20109;-82
2021/08/06 04:15:13;;;;;;;3.42;2.92;;;;;;;19.95;57.97;98529.56;6071820;23;20022;-82
2021/08/06 04:17:45;;;;;;;2.83;2.50;;;;;;;19.94;58.29;98523.38;6071940;23;20029;-82
2021/08/06 04:20:13;;;;;;;3.08;2.58;;;;;;;19.99;58.09;98530.88;6072853;23;20037;-82
2021/08/06 04:22:44;;;;;;;4.30;2.78;;;;;;;19.98;58.07;98529.19;6071825;23;20101;-82
2021/08/06 04:25:13;;;;;;;3.53;2.47;;;;;;;20.00;58.43;98524.53;6071588;23;20106;-82
2021/08/06 04:27:51;;;;;;;3.33;2.83;;;;;;;20.01;58.79;98520.84;6077994;23;20526;-85
2021/08/06 04:30:26;;;;;;;2.92;2.50;;;;;;;20.02;58.62;98523.34;6102890;23;20026;-83
2021/08/06 04:33:08;;;;;;;2.88;2.53;;;;;;;20.05;58.22;98520.34;6079613;23;20033;-84
2021/08/06 04:36:20;;;;;;;3.80;2.40;;;;;;;20.04;58.64;98525.84;6076849;23;20364;-84
2021/08/06 04:39:12;;;;;;;2.90;2.60;;;;;;;20.08;58.38;98523.63;6081347;23;20026;-89
2021/08/06 04:42:13;;;;;;;2.80;2.60;;;;;;;20.10;58.75;98525.13;6081705;23;20045;-88
2021/08/06 04:44:59;;;;;;;2.80;2.10;;;;;;;20.16;58.25;98527.09;6071745;23;20033;-89
2021/08/06 04:51:18;;;;;;;4.95;2.30;;;;;;;20.23;58.23;98521.00;5934105;24;20075;-84
2021/08/06 04:54:39;;;;;;;2.47;2.28;;;;;;;20.21;58.44;98520.34;5932492;23;20449;-85
2021/08/06 04:58:06;;;;;;;2.40;2.15;;;;;;;20.24;58.16;98520.00;5985608;23;20111;-82
2021/08/06 05:01:24;;;;;;;2.83;2.38;;;;;;;20.27;57.90;98522.31;5989194;23;20032;-89
2021/08/06 05:04:47;;;;;;;3.78;2.33;;;;;;;20.28;58.07;98521.28;6079550;23;20026;-84
2021/08/06 05:08:10;;;;;;;3.83;2.35;;;;;;;20.29;57.88;98522.94;6101403;23;20446;-84
2021/08/06 05:10:45;;;;;;;2.95;2.35;;;;;;;20.34;57.78;98519.75;6080502;23;20040;-84
2021/08/06 05:13:17;;;;;;;2.92;2.42;;;;;;;20.34;57.55;98517.06;6074934;23;20391;-84
2021/08/06 05:15:44;;;;;;;2.78;2.30;;;;;;;20.34;58.08;98522.41;6073531;23;20849;-85
2021/08/06 05:18:13;;;;;;;3.95;2.42;;;;;;;20.31;58.22;98518.25;6073216;23;20018;-84
2021/08/06 05:20:39;;;;;;;3.88;2.40;;;;;;;20.33;58.32;98518.91;6073247;23;20110;-84
2021/08/06 05:23:09;;;;;;;4.75;2.60;;;;;;;20.35;58.36;98519.56;6075911;23;20394;-82
2021/08/06 05:25:37;;;;;;;2.53;2.33;;;;;;;20.37;58.31;98506.84;6072746;23;20089;-82
2021/08/06 05:28:06;;;;;;;2.53;2.33;;;;;;;20.40;58.61;98514.50;6073111;23;20066;-82
2021/08/06 05:30:41;;;;;;;2.97;2.67;;;;;;;20.42;58.42;98512.47;6073858;23;20416;-85
2021/08/06 05:33:32;;;;;;;3.70;2.85;;;;;;;20.44;58.61;98505.09;6075238;23;20105;-85
2021/08/06 05:36:00;;;;;;;2.55;2.33;;;;;;;20.53;58.06;98497.81;6100010;23;20022;-85
2021/08/06 05:38:42;;;;;;;5.22;2.40;;;;;;;20.53;58.44;98507.69;6073851;23;20105;-84
2021/08/06 05:41:08;;;;;;;2.90;2.58;;;;;;;20.61;58.07;98502.25;6073779;23;20349;-85
2021/08/06 05:43:38;;;;;;;2.70;2.50;;;;;;;20.62;58.27;98503.91;6073037;23;20101;-85
2021/08/06 05:46:05;;;;;;;3.72;2.35;;;;;;;20.66;58.17;98499.84;6073463;23;20410;-84
2021/08/06 05:49:00;;;;;;;2.88;2.30;;;;;;;20.66;58.55;98501.69;6098779;23;20518;-84
2021/08/06 05:51:26;;;;;;;3.22;2.55;;;;;;;20.74;57.92;98500.78;6073561;23;20382;-85
2021/08/06 05:54:09;;;;;;;3.80;2.70;;;;;;;20.73;58.33;98507.97;6072869;23;20077;-85
2021/08/06 05:56:36;;;;;;;3.90;2.67;;;;;;;20.82;58.47;98504.19;6096782;23;20105;-85
2021/08/06 05:59:09;;;;;;;3.05;2.50;;;;;;;20.88;58.48;98509.81;6073877;23;20110;-85
2021/08/06 06:01:36;;;;;;;2.90;2.63;;;;;;;20.95;58.30;98506.25;6087482;23;20073;-86
2021/08/06 06:04:03;;;;;;;3.22;2.20;;;;;;;21.01;58.12;98507.31;6095277;23;20022;-86
2021/08/06 06:06:31;;;;;;;7.13;2.80;;;;;;;21.06;57.89;98506.78;6096165;23;20026;-86
2021/08/06 06:08:58;;;;;;;3.08;2.28;;;;;;;21.11;57.93;98504.38;6070200;23;20022;-86
2021/08/06 06:11:25;;;;;;;2.88;2.53;;;;;;;21.16;57.84;98509.97;6096083;23;20026;-85
2021/08/06 06:13:51;;;;;;;2.67;2.47;;;;;;;21.20;57.64;98497.06;6095795;23;20030;-88
2021/08/06 06:16:18;;;;;;;2.78;2.55;;;;;;;21.24;57.51;98500.19;6069885;23;20466;-87
2021/08/06 06:18:45;;;;;;;3.22;2.78;;;;;;;21.28;57.49;98509.50;6095416;23;20022;-87
2021/08/06 06:21:11;;;;;;;3.22;2.83;;;;;;;21.32;57.42;98502.75;6070485;23;20034;-87
2021/08/06 06:23:38;;;;;;;3.95;2.47;;;;;;;21.35;57.28;98505.88;6095152;23;20046;-87
2021/08/06 06:26:06;;;;;;;6.05;3.00;;;;;;;21.36;57.08;98506.72;6069886;23;20034;-87
2021/08/06 06:28:33;;;;;;;3.35;3.05;;;;;;;21.39;57.15;98510.84;6095072;23;20053;-88
2021/08/06 06:31:01;;;;;;;3.03;2.70;;;;;;;21.40;57.30;98509.84;6095321;23;20451;-88
2021/08/06 06:33:27;;;;;;;5.65;2.90;;;;;;;21.41;57.05;98516.88;6069438;23;20485;-88
2021/08/06 06:35:54;;;;;;;3.20;2.90;;;;;;;21.42;57.18;98519.34;6094918;23;20367;-86
2021/08/06 06:38:21;;;;;;;5.15;2.60;;;;;;;21.42;57.19;98518.53;6095545;23;20046;-87
2021/08/06 06:40:48;;;;;;;3.53;2.50;;;;;;;21.40;57.39;98510.69;6095338;23;20037;-88
2021/08/06 06:43:14;;;;;;;3.10;2.72;;;;;;;21.40;57.56;98507.16;6094944;23;20033;-86
2021/08/06 06:45:41;;;;;;;3.90;2.63;;;;;;;21.40;57.41;98510.69;6094925;23;20028;-88
2021/08/06 06:48:08;;;;;;;4.35;2.70;;;;;;;21.41;58.05;98516.88;6070053;23;20029;-88
2021/08/06 06:50:35;;;;;;;3.08;2.78;;;;;;;21.46;58.03;98520.63;6095148;23;20023;-88
2021/08/06 06:53:02;;;;;;;3.13;2.80;;;;;;;21.51;57.87;98522.75;6069747;23;20049;-87
2021/08/06 06:55:29;;;;;;;3.35;2.95;;;;;;;21.54;57.42;98518.84;6095154;23;20359;-87
2021/08/06 06:57:56;;;;;;;3.33;2.75;;;;;;;21.57;57.43;98524.66;6069876;23;20034;-87
2021/08/06 07:00:26;;;;;;;3.83;2.75;;;;;;;21.56;57.46;98522.16;6095070;23;20537;-87
2021/08/06 07:02:53;;;;;;;4.05;2.80;;;;;;;21.55;57.33;98523.19;6095289;23;20026;-87
2021/08/06 07:05:20;;;;;;;3.35;2.67;;;;;;;21.53;57.37;98518.00;6094684;23;20026;-86
2021/08/06 07:07:47;;;;;;;3.42;3.13;;;;;;;21.50;57.47;98525.59;6095202;23;20019;-86
2021/08/06 07:10:15;;;;;;;4.40;2.40;;;;;;;21.47;57.62;98510.75;6070140;23;20030;-88
2021/08/06 07:12:43;;;;;;;4.00;2.60;;;;;;;21.42;57.94;98518.53;6069393;23;20027;-87
2021/08/06 07:15:11;;;;;;;3.58;2.70;;;;;;;21.38;57.87;98518.06;6069536;23;20569;-87
2021/08/06 07:17:38;;;;;;;3.65;2.95;;;;;;;21.35;58.07;98527.28;6069617;23;20022;-88
2021/08/06 07:20:08;;;;;;;2.50;2.28;;;;;;;21.34;58.61;98528.31;6069391;23;20025;-87
2021/08/06 07:22:35;;;;;;;4.60;2.97;;;;;;;21.32;58.46;98533.03;6094763;23;20030;-86
2021/08/06 07:25:03;;;;;;;3.60;3.20;;;;;;;21.33;58.72;98531.19;6069620;23;20359;-88
2021/08/06 07:27:30;;;;;;;3.70;3.15;;;;;;;21.33;58.83;98526.66;6069534;23;20022;-87
2021/08/06 07:29:57;;;;;;;3.88;3.05;;;;;;;21.34;59.36;98522.97;6069754;23;20563;-87
2021/08/06 07:32:23;;;;;;;5.03;3.17;;;;;;;21.37;59.35;98524.44;6069188;23;20026;-86
2021/08/06 07:34:55;;;;;;;4.18;3.38;;;;;;;21.40;59.55;98526.75;6070633;23;20035;-87
2021/08/06 07:37:21;;;;;;;4.70;2.60;;;;;;;21.46;59.88;98525.97;6095146;23;20023;-87
2021/08/06 07:39:49;;;;;;;4.00;3.10;;;;;;;21.52;59.36;98529.75;6069066;23;20026;-88
2021/08/06 07:42:16;;;;;;;4.70;3.30;;;;;;;21.57;59.75;98539.91;6069070;23;20030;-86
2021/08/06 07:44:44;;;;;;;4.88;2.97;;;;;;;21.62;59.86;98540.16;6095154;23;20022;-86
2021/08/06 07:47:12;;;;;;;4.63;2.65;;;;;;;21.66;59.70;98541.44;6094811;23;20029;-88
2021/08/06 07:49:41;;;;;;;4.32;2.60;;;;;;;21.68;59.58;98531.34;6069224;23;20481;-87
2021/08/06 07:52:09;;;;;;;3.80;2.67;;;;;;;21.71;59.40;98541.69;6094966;23;20022;-89
2021/08/06 07:54:38;;;;;;;4.15;3.08;;;;;;;21.74;59.23;98551.22;6094697;23;20022;-87
2021/08/06 07:57:05;;;;;;;3.17;2.70;;;;;;;21.73;59.28;98547.72;6069538;23;20026;-86
2021/08/06 07:59:32;;;;;;;4.15;2.92;;;;;;;21.74;59.28;98540.50;6094207;23;20497;-86
2021/08/06 08:01:59;;;;;;;2.88;2.35;;;;;;;21.73;59.42;98536.19;6068878;23;20478;-86
2021/08/06 08:04:25;;;;;;;2.53;2.33;;;;;;;21.71;59.77;98535.50;6094285;23;20030;-88
2021/08/06 08:06:52;;;;;;;3.25;2.63;;;;;;;21.70;59.69;98532.00;6094378;23;20022;-85
2021/08/06 08:09:19;;;;;;;3.35;2.38;;;;;;;21.71;60.10;98533.66;6069117;23;20467;-87
2021/08/06 08:11:46;;;;;;;4.50;3.00;;;;;;;21.71;59.93;98544.38;6069798;23;20359;-88
2021/08/06 08:14:12;;;;;;;4.45;2.40;;;;;;;21.71;60.14;98544.38;6093807;23;20046;-86
2021/08/06 08:16:39;;;;;;;2.88;2.58;;;;;;;21.74;60.37;98541.34;6069114;23;20541;-87
2021/08/06 08:19:06;;;;;;;2.30;2.05;;;;;;;21.74;60.57;98538.66;6069999;23;20022;-87
2021/08/06 08:21:32;;;;;;;2.80;2.20;;;;;;;21.79;60.85;98540.75;6071069;23;20367;-87
2021/08/06 08:23:59;;;;;;;2.92;2.00;;;;;;;21.82;60.57;98539.53;6070865;23;20026;-87
2021/08/06 08:26:25;;;;;;;2.13;1.92;;;;;;;21.85;60.89;98539.16;6071504;23;20028;-87
2021/08/06 08:28:52;;;;;;;2.58;1.85;;;;;;;21.86;60.56;98547.03;6070506;23;20023;-90
2021/08/06 08:31:19;;;;;;;2.30;2.10;;;;;;;21.89;60.22;98544.97;6096151;23;20022;-87
2021/08/06 08:33:46;;;;;;;2.78;2.30;;;;;;;21.87;60.24;98548.66;6096268;23;20025;-87
2021/08/06 08:36:12;;;;;;;2.03;1.83;;;;;;;21.85;60.23;98544.53;6070716;23;20026;-87
2021/08/06 08:38:39;;;;;;;2.63;2.10;;;;;;;21.81;60.30;98541.41;6096282;23;20026;-88
2021/08/06 08:41:06;;;;;;;2.13;1.92;;;;;;;21.79;60.69;98556.03;6096467;23;20037;-88
2021/08/06 08:43:34;;;;;;;4.35;2.03;;;;;;;21.78;60.87;98546.31;6096419;23;20471;-87
2021/08/06 08:46:02;;;;;;;4.63;1.90;;;;;;;21.80;60.78;98538.91;6070577;23;20046;-87
2021/08/06 08:48:29;;;;;;;2.28;1.95;;;;;;;21.82;61.30;98543.06;6071414;23;20343;-87
2021/08/06 08:50:58;;;;;;;2.15;1.98;;;;;;;21.86;61.64;98538.13;6071208;23;20026;-87
2021/08/06 08:53:25;;;;;;;4.35;1.98;;;;;;;21.93;61.16;98535.53;6070931;23;20030;-88
2021/08/06 08:55:51;;;;;;;3.25;1.95;;;;;;;21.98;61.13;98546.53;6070206;23;20037;-87
2021/08/06 08:58:18;;;;;;;2.75;2.08;;;;;;;22.02;61.16;98545.13;6070447;23;20026;-88
2021/08/06 09:00:45;;;;;;;2.58;2.22;;;;;;;22.05;60.84;98544.72;6071173;23;20200;-88
2021/08/06 09:03:46;;;;;;;2.72;2.42;;;;;;;22.05;60.76;98543.91;6095860;23;20347;-87
2021/08/06 09:06:14;;;;;;;2.45;2.22;;;;;;;22.14;60.50;98545.41;6033969;23;20367;-88
2021/08/06 09:08:42;;;;;;;3.90;2.15;;;;;;;22.15;60.43;98536.34;6096447;23;20019;-87
2021/08/06 09:11:31;;;;;;;2.38;2.17;;;;;;;22.12;60.96;98539.41;6071161;23;20030;-87
2021/08/06 09:14:22;;;;;;;3.53;2.10;;;;;;;22.12;61.16;98537.56;6070536;23;20022;-86
2021/08/06 09:16:59;;;;;;;2.70;2.50;;;;;;;22.15;61.43;98539.03;6096198;23;20022;-88
2021/08/06 09:19:28;;;;;;;3.80;2.72;;;;;;;22.17;60.48;98536.16;6071145;23;20628;-87
2021/08/06 09:22:25;;;;;;;3.45;2.83;;;;;;;22.10;61.03;98533.44;6070932;23;20030;-86
2021/08/06 09:24:59;;;;;;;3.42;2.65;;;;;;;22.12;61.40;98534.88;6056169;23;20478;-86
2021/08/06 09:27:32;;;;;;;2.55;2.35;;;;;;;22.13;61.13;98535.72;6096018;23;20034;-86
2021/08/06 09:30:00;;;;;;;3.13;2.70;;;;;;;22.13;61.73;98535.72;6071203;23;20027;-88
2021/08/06 09:32:27;;;;;;;2.90;2.70;;;;;;;22.15;61.73;98539.03;6096370;23;20037;-86
2021/08/06 09:34:54;;;;;;;2.90;2.60;;;;;;;22.17;61.93;98534.31;6071387;23;20027;-87
2021/08/06 09:37:22;;;;;;;2.90;2.67;;;;;;;22.20;61.90;98530.41;6070980;23;20018;-87
2021/08/06 09:39:52;;;;;;;4.72;2.95;;;;;;;22.23;62.29;98533.53;6071382;23;20022;-87
2021/08/06 09:42:25;;;;;;;3.83;2.90;;;;;;;22.26;61.98;98530.47;6071531;23;20022;-87
2021/08/06 09:44:58;;;;;;;2.85;2.50;;;;;;;22.30;61.71;98527.38;6071057;23;20029;-87
2021/08/06 09:47:27;;;;;;;3.30;3.00;;;;;;;22.34;61.52;98534.00;6096951;23;20044;-85
2021/08/06 09:49:56;;;;;;;3.45;3.15;;;;;;;22.36;61.72;98521.25;6070974;23;20034;-87
2021/08/06 09:52:30;;;;;;;3.22;2.92;;;;;;;22.35;61.83;98530.34;6096995;23;20033;-87
2021/08/06 09:55:21;;;;;;;5.25;2.97;;;;;;;22.40;62.07;98535.94;6075253;23;20037;-87
2021/08/06 09:57:50;;;;;;;3.38;3.08;;;;;;;22.46;61.58;98532.47;6096776;23;20038;-87
2021/08/06 10:00:20;;;;;;;2.97;2.78;;;;;;;22.50;61.92;98530.22;6071400;23;20023;-87
2021/08/06 10:02:48;;;;;;;3.25;2.95;;;;;;;22.59;62.52;98529.09;6096828;23;20085;-85
2021/08/06 10:05:18;;;;;;;3.88;2.92;;;;;;;22.70;62.55;98534.91;6096492;23;20030;-87
2021/08/06 10:07:49;;;;;;;3.45;3.15;;;;;;;22.81;62.01;98537.06;6071540;23;20033;-84
2021/08/06 10:10:23;;;;;;;3.08;2.72;;;;;;;22.89;61.86;98530.69;6096395;23;20033;-84
2021/08/06 10:12:52;;;;;;;3.00;2.80;;;;;;;23.00;62.22;98522.09;6096786;23;20026;-85
2021/08/06 10:15:20;;;;;;;3.47;3.20;;;;;;;23.14;61.90;98525.63;6072434;23;20037;-87
2021/08/06 10:17:48;;;;;;;2.92;2.72;;;;;;;23.27;62.13;98522.19;6098397;23;20029;-84
2021/08/06 10:20:17;;;;;;;3.72;3.40;;;;;;;23.43;62.62;98517.50;6099630;23;20030;-83
2021/08/06 10:22:44;;;;;;;4.65;3.17;;;;;;;23.63;62.74;98511.38;6100746;23;20045;-83
2021/08/06 10:25:12;;;;;;;3.45;3.15;;;;;;;23.85;62.63;98513.88;6098542;23;20023;-83
2021/08/06 10:27:45;;;;;;;3.67;3.38;;;;;;;24.04;61.04;98517.63;6099462;23;20026;-84
2021/08/06 10:30:20;;;;;;;3.78;3.35;;;;;;;24.23;59.68;98515.16;6096912;23;20037;-84
2021/08/06 10:33:07;;;;;;;3.42;2.80;;;;;;;24.29;59.04;98508.97;6072577;23;20031;-86
2021/08/06 10:35:51;;;;;;;4.28;3.88;;;;;;;24.33;58.20;98511.00;6097331;23;20026;-86
2021/08/06 10:38:41;;;;;;;3.65;3.35;;;;;;;24.32;58.10;98512.06;6071534;23;20053;-86
2021/08/06 10:41:13;;;;;;;3.47;3.17;;;;;;;24.33;57.79;98511.00;6071791;23;20042;-84
2021/08/06 10:43:49;;;;;;;3.72;3.42;;;;;;;24.31;58.19;98512.25;6096414;23;20351;-86
2021/08/06 10:46:18;;;;;;;3.30;3.00;;;;;;;24.31;58.29;98513.09;6071310;23;20713;-84
2021/08/06 10:48:50;;;;;;;3.60;3.30;;;;;;;24.31;59.58;98501.50;6098489;23;20344;-86
2021/08/06 10:51:20;;;;;;;4.18;3.78;;;;;;;24.40;60.66;98513.69;6072792;23;20034;-84
2021/08/06 10:54:13;;;;;;;5.82;3.70;;;;;;;24.58;60.77;98523.81;6097987;23;20026;-87
2021/08/06 10:56:40;;;;;;;3.33;3.03;;;;;;;24.89;59.61;98508.03;6027858;23;20022;-85
2021/08/06 10:59:14;;;;;;;2.97;2.78;;;;;;;25.11;56.83;98511.25;6071121;23;20482;-84
2021/08/06 11:01:46;;;;;;;2.30;2.15;;;;;;;25.28;56.26;98504.56;6071741;23;20354;-85
2021/08/06 11:04:13;;;;;;;2.55;2.35;;;;;;;25.37;55.12;98505.94;6071006;23;20022;-84
2021/08/06 11:06:48;;;;;;;3.38;2.20;;;;;;;25.40;54.76;98510.91;6096655;23;20029;-85
2021/08/06 11:09:27;;;;;;;3.13;2.25;;;;;;;25.48;54.45;98505.28;6071065;23;20019;-83
2021/08/06 11:12:12;;;;;;;2.30;2.10;;;;;;;25.74;55.77;98506.19;6070938;23;20026;-86
2021/08/06 11:14:39;;;;;;;3.13;1.98;;;;;;;26.09;55.34;98498.66;6071240;23;20034;-84
2021/08/06 11:17:09;;;;;;;2.90;1.88;;;;;;;26.41;54.33;98496.75;6071591;23;20038;-84
2021/08/06 11:19:45;;;;;;;2.28;2.10;;;;;;;26.74;53.03;98499.31;6071007;23;20023;-85
2021/08/06 11:22:31;;;;;;;2.13;1.80;;;;;;;27.03;51.71;98495.03;6071200;23;20056;-84
2021/08/06 11:25:07;;;;;;;2.10;1.95;;;;;;;27.24;50.47;98503.72;6095739;23;20031;-88
2021/08/06 11:27:44;;;;;;;2.00;1.80;;;;;;;27.29;50.16;98500.34;6096849;23;20033;-84
2021/08/06 11:30:18;;;;;;;2.38;2.17;;;;;;;27.28;49.64;98506.81;6096340;23;20037;-87
2021/08/06 11:32:48;;;;;;;2.70;1.95;;;;;;;27.16;48.95;98509.44;6096714;23;20037;-84
2021/08/06 11:35:21;;;;;;;2.00;1.70;;;;;;;26.97;48.65;98511.31;6070942;23;20038;-84
2021/08/06 11:38:00;;;;;;;1.90;1.80;;;;;;;26.78;49.13;98519.41;6097793;23;20031;-83
2021/08/06 11:40:29;;;;;;;7.28;3.42;;;;;;;26.52;50.27;98534.81;6098024;23;20026;-85
2021/08/06 11:42:56;;;;;;;3.90;2.45;;;;;;;26.22;50.45;98532.78;6095714;23;20034;-85
2021/08/06 11:45:29;;;;;;;2.70;1.80;;;;;;;25.80;51.35;98534.13;6094982;23;20034;-86
2021/08/06 11:48:03;;;;;;;3.05;1.95;;;;;;;25.37;52.38;98531.03;6095683;23;20077;-87
2021/08/06 11:50:41;;;;;;;3.65;1.67;;;;;;;25.02;53.10;98527.84;6096137;23;20023;-84
2021/08/06 11:53:25;;;;;;;3.40;1.70;;;;;;;24.62;54.04;98526.91;6097670;23;20026;-83
2021/08/06 11:55:54;;;;;;;2.22;2.03;;;;;;;24.37;55.88;98524.06;6095600;23;20454;-88
2021/08/06 11:58:29;;;;;;;2.60;2.20;;;;;;;24.21;58.06;98526.13;6068797;23;20540;-88
2021/08/06 12:00:55;;;;;;;5.10;2.42;;;;;;;24.28;60.03;98521.56;6093492;23;20026;-86
2021/08/06 12:03:22;;;;;;;3.50;2.95;;;;;;;24.62;61.93;98520.72;6067818;23;20497;-85
2021/08/06 12:05:52;;;;;;;2.85;2.65;;;;;;;25.15;61.55;98513.53;6067648;23;20077;-86
2021/08/06 12:08:23;;;;;;;6.28;2.88;;;;;;;25.80;62.15;98509.88;6093983;23;20018;-85
2021/08/06 12:10:55;;;;;;;2.53;2.20;;;;;;;26.44;59.06;98508.97;6093673;23;20105;-85
2021/08/06 12:13:24;;;;;;;4.78;1.80;;;;;;;26.88;55.83;98513.47;6095212;23;20045;-85
2021/08/06 12:16:12;;;;;;;2.25;1.70;;;;;;;27.12;54.59;98521.75;6095163;23;20383;-87
2021/08/06 12:18:50;;;;;;;3.70;1.67;;;;;;;27.34;54.29;98519.38;6069895;23;20046;-86